Time;durP1;ratioP1;P1;durP2;ratioP2;P2;SDS_P1;SDS_P2;PMS_P1;PMS_P2;Temp;Humidity;BMP_temperature;BMP_pressure;BME280_temperature;BME280_humidity;BME280_pressure;Samples;Min_cycle;Max_cycle;Signal;HPM_P1;HPM_P2
2022/05/09 00:00:10;;;;;;;13.20;8.55;;;;;;;14.45;68.33;99950.13;1775623;79;21606;-71
2022/05/09 00:02:40;;;;;;;16.60;8.48;;;;;;;14.41;68.28;99953.34;1758610;79;20973;-71
2022/05/09 00:05:10;;;;;;;16.90;7.90;;;;;;;14.39;68.19;99944.55;1777700;79;20992;-71
2022/05/09 00:07:36;;;;;;;16.35;8.70;;;;;;;14.39;68.18;99942.34;1752126;79;21148;-71
2022/05/09 00:10:08;;;;;;;16.97;8.60;;;;;;;14.38;68.15;99950.42;1779663;79;21064;-70
2022/05/09 00:12:37;;;;;;;16.73;9.33;;;;;;;14.31;68.31;99955.91;1776818;79;21027;-71
2022/05/09 00:15:06;;;;;;;14.75;8.68;;;;;;;14.27;68.45;99956.36;1776472;79;21488;-71
2022/05/09 00:17:36;;;;;;;16.48;8.48;;;;;;;14.20;68.66;99950.52;1774657;79;21105;-72
2022/05/09 00:20:06;;;;;;;14.87;9.05;;;;;;;14.17;68.83;99949.24;1779089;79;21535;-71
2022/05/09 00:22:50;;;;;;;13.90;8.80;;;;;;;14.13;68.90;99944.11;1774948;79;20968;-71
2022/05/09 00:25:25;;;;;;;12.73;7.70;;;;;;;14.09;69.11;99948.72;1781271;79;21036;-70
2022/05/09 00:27:55;;;;;;;14.13;8.80;;;;;;;14.06;69.27;99945.20;1777055;79;21122;-71
2022/05/09 00:30:25;;;;;;;16.75;8.50;;;;;;;14.00;69.44;99945.98;1774559;79;21485;-72
2022/05/09 00:32:57;;;;;;;14.25;8.48;;;;;;;13.95;69.58;99942.01;1777006;79;21080;-72
2022/05/09 00:35:24;;;;;;;20.60;8.83;;;;;;;13.91;69.73;99938.27;1766905;80;21068;-71
2022/05/09 00:37:51;;;;;;;16.70;8.05;;;;;;;13.85;69.81;99932.91;1753156;81;21101;-71
2022/05/09 00:40:21;;;;;;;13.18;7.20;;;;;;;13.81;69.92;99936.69;1770612;79;20989;-71
2022/05/09 00:42:51;;;;;;;13.95;7.60;;;;;;;13.76;70.06;99946.00;1771628;79;21005;-71
2022/05/09 00:45:22;;;;;;;15.30;7.42;;;;;;;13.69;70.25;99947.89;1777026;79;21492;-72
2022/05/09 00:47:50;;;;;;;16.60;7.50;;;;;;;13.64;70.36;99948.07;1773964;80;21055;-72
2022/05/09 00:50:27;;;;;;;13.38;7.12;;;;;;;13.64;70.34;99945.30;1778083;79;21016;-71
2022/05/09 00:53:05;;;;;;;12.33;6.67;;;;;;;13.67;70.31;99943.81;1765987;80;20972;-71
2022/05/09 00:55:42;;;;;;;16.90;7.33;;;;;;;13.64;70.32;99953.61;1754385;79;21033;-72
2022/05/09 00:58:28;;;;;;;15.35;6.55;;;;;;;13.60;70.41;99950.69;1753765;80;21882;-71
2022/05/09 01:00:55;;;;;;;11.22;6.85;;;;;;;13.52;70.51;99947.37;1776641;79;21699;-72
2022/05/09 01:03:32;;;;;;;12.47;7.25;;;;;;;13.51;70.55;99956.23;1771846;80;20992;-71
2022/05/09 01:05:59;;;;;;;13.20;6.37;;;;;;;13.53;70.34;99957.29;1784360;79;21059;-70
2022/05/09 01:08:31;;;;;;;13.78;6.37;;;;;;;13.51;70.26;99954.86;1782335;79;21063;-71
2022/05/09 01:11:09;;;;;;;17.90;8.30;;;;;;;13.42;70.53;99951.84;1755395;80;21142;-72
2022/05/09 01:13:39;;;;;;;27.42;12.03;;;;;;;13.39;71.06;99952.73;1775616;80;21008;-70
2022/05/09 01:16:09;;;;;;;40.45;14.10;;;;;;;13.38;71.42;99959.98;1766935;80;20985;-70
2022/05/09 01:18:37;;;;;;;38.05;13.25;;;;;;;13.39;71.65;99961.03;1772871;80;21523;-71
2022/05/09 01:21:35;;;;;;;32.85;13.40;;;;;;;13.40;71.81;99956.32;1778568;79;21001;-72
2022/05/09 01:24:03;;;;;;;32.58;12.15;;;;;;;13.40;71.92;99964.63;1753668;80;21167;-71
2022/05/09 01:26:33;;;;;;;28.25;12.85;;;;;;;13.42;72.06;99961.53;1773557;80;21512;-71
2022/05/09 01:29:06;;;;;;;25.65;10.50;;;;;;;13.44;72.06;99964.20;1762797;80;21286;-70
2022/05/09 01:31:36;;;;;;;23.18;9.50;;;;;;;13.48;72.11;99962.41;1747478;79;21028;-72
2022/05/09 01:34:09;;;;;;;16.42;7.53;;;;;;;13.51;72.07;99969.25;1777922;79;21016;-71
2022/05/09 01:36:37;;;;;;;13.08;6.87;;;;;;;13.51;72.32;99967.88;1777141;79;21228;-71
2022/05/09 01:39:12;;;;;;;14.03;7.17;;;;;;;13.51;72.34;99968.70;1775207;79;20996;-69
2022/05/09 01:41:45;;;;;;;12.57;6.40;;;;;;;13.49;72.59;99966.79;1766554;79;21052;-71
2022/05/09 01:44:14;;;;;;;10.32;5.50;;;;;;;13.46;72.82;99968.84;1778474;79;21007;-70
2022/05/09 01:49:32;;;;;;;13.48;6.22;;;;;;;13.47;73.13;99973.81;1767326;79;21898;-72
2022/05/09 01:52:02;;;;;;;9.85;5.35;;;;;;;13.50;73.19;99977.30;1772811;79;20986;-72
2022/05/09 01:54:28;;;;;;;8.73;4.83;;;;;;;13.48;73.44;99982.34;1771527;79;21118;-70
2022/05/09 01:56:56;;;;;;;10.32;5.03;;;;;;;13.42;73.49;99981.72;1781722;79;21091;-70
2022/05/09 01:59:23;;;;;;;9.30;4.50;;;;;;;13.43;73.64;99993.02;1775286;79;21446;-72
2022/05/09 02:01:54;;;;;;;9.88;5.15;;;;;;;13.41;73.75;99989.77;1773554;79;21118;-72
2022/05/09 02:04:23;;;;;;;7.67;4.22;;;;;;;13.35;73.88;99996.62;1764178;79;20996;-71
2022/05/09 02:06:52;;;;;;;11.83;4.78;;;;;;;13.29;74.24;99992.41;1759639;80;21049;-70
2022/05/09 02:09:21;;;;;;;13.95;5.87;;;;;;;13.26;74.52;99993.86;1771645;80;21470;-70
2022/05/09 02:11:51;;;;;;;8.05;4.42;;;;;;;13.23;74.67;99992.57;1767950;80;21016;-72
2022/05/09 02:14:20;;;;;;;7.08;4.62;;;;;;;13.23;74.97;100000.05;1768769;80;21021;-70
2022/05/09 02:16:50;;;;;;;9.30;4.40;;;;;;;13.23;75.22;99995.90;1768655;80;21501;-71
2022/05/09 02:19:16;;;;;;;8.63;3.83;;;;;;;13.21;75.37;99999.00;1768827;80;21015;-71
2022/05/09 02:21:48;;;;;;;5.30;3.80;;;;;;;13.19;75.53;100003.21;1764773;81;21051;-71
2022/05/09 02:24:17;;;;;;;8.40;4.33;;;;;;;13.19;75.76;100008.74;1768951;80;21039;-71
2022/05/09 02:26:45;;;;;;;8.53;3.87;;;;;;;13.15;76.20;100008.02;1765584;81;21141;-71
2022/05/09 02:29:14;;;;;;;5.70;4.15;;;;;;;13.11;76.34;100015.36;1769533;80;21044;-72
2022/05/09 02:31:46;;;;;;;7.45;4.70;;;;;;;13.10;76.67;100010.16;1765200;81;21008;-71
2022/05/09 02:34:14;;;;;;;7.85;4.17;;;;;;;13.05;76.98;100013.87;1769332;80;21037;-71
2022/05/09 02:36:45;;;;;;;7.17;4.00;;;;;;;13.02;77.34;100010.37;1764616;79;21000;-73
2022/05/09 02:39:11;;;;;;;9.85;4.40;;;;;;;13.06;77.57;100016.90;1769145;80;21788;-72
2022/05/09 02:41:41;;;;;;;11.10;4.70;;;;;;;13.04;77.68;100013.64;1767759;80;20973;-72
2022/05/09 02:44:08;;;;;;;7.00;4.97;;;;;;;13.01;77.92;100012.35;1769335;80;20985;-72
2022/05/09 02:46:37;;;;;;;7.90;3.95;;;;;;;12.97;78.17;100022.42;1747072;80;21075;-72
2022/05/09 02:49:03;;;;;;;9.05;5.33;;;;;;;12.98;78.56;100027.39;1743241;81;20985;-72
2022/05/09 02:51:30;;;;;;;12.78;5.15;;;;;;;12.97;78.52;100025.75;1769258;80;21142;-73
2022/05/09 02:54:04;;;;;;;11.18;4.85;;;;;;;12.99;78.57;100026.25;1765161;80;20968;-71
2022/05/09 02:56:32;;;;;;;13.43;5.62;;;;;;;13.01;78.67;100030.89;1728254;81;21516;-71
2022/05/09 02:59:02;;;;;;;8.58;5.25;;;;;;;13.04;78.59;100037.15;1768914;81;21055;-71
2022/05/09 03:01:30;;;;;;;9.15;5.30;;;;;;;13.10;78.65;100038.61;1768944;81;21210;-73
2022/05/09 03:06:46;;;;;;;10.35;5.97;;;;;;;12.99;79.02;100034.55;1760846;81;21055;-71
2022/05/09 03:09:13;;;;;;;10.63;6.15;;;;;;;12.96;79.33;100044.88;1746251;81;20976;-72
2022/05/09 03:11:44;;;;;;;9.63;5.75;;;;;;;12.94;79.63;100048.53;1765769;81;21024;-71
2022/05/09 03:14:11;;;;;;;11.85;6.25;;;;;;;12.93;79.90;100053.83;1768079;80;21016;-71
2022/05/09 03:16:37;;;;;;;12.98;6.28;;;;;;;12.89;80.14;100061.39;1765004;80;21024;-72
2022/05/09 03:19:07;;;;;;;13.78;5.37;;;;;;;12.89;80.48;100056.42;1762464;80;20961;-71
2022/05/09 03:21:35;;;;;;;12.75;5.90;;;;;;;12.92;80.56;100067.39;1764542;79;21035;-71
2022/05/09 03:24:02;;;;;;;13.65;6.47;;;;;;;12.94;80.62;100070.66;1728313;80;21037;-71
2022/05/09 03:26:31;;;;;;;13.90;6.53;;;;;;;12.96;80.64;100078.06;1766597;80;21516;-71
2022/05/09 03:28:58;;;;;;;16.77;7.10;;;;;;;12.97;80.73;100079.68;1762118;80;21854;-70
2022/05/09 03:31:25;;;;;;;14.58;6.15;;;;;;;12.93;80.83;100076.73;1763467;80;20946;-72
2022/05/09 03:33:57;;;;;;;14.75;6.92;;;;;;;12.90;81.05;100078.78;1762203;81;21000;-70
2022/05/09 03:36:26;;;;;;;16.77;6.23;;;;;;;12.84;81.24;100078.69;1761325;81;21118;-71
2022/05/09 03:38:53;;;;;;;12.33;6.30;;;;;;;12.86;81.38;100077.22;1763680;81;21738;-70
2022/05/09 03:41:23;;;;;;;13.15;5.53;;;;;;;12.87;81.60;100083.02;1766858;81;21834;-71
2022/05/09 03:43:50;;;;;;;9.98;5.45;;;;;;;12.83;81.58;100088.92;1762458;81;21048;-70
2022/05/09 03:46:16;;;;;;;11.65;6.28;;;;;;;12.78;81.91;100087.70;1765108;81;21067;-71
2022/05/09 03:48:44;;;;;;;12.13;7.50;;;;;;;12.74;82.08;100086.72;1762273;81;21059;-71
2022/05/09 03:51:11;;;;;;;12.63;6.70;;;;;;;12.75;82.37;100091.93;1762364;81;21032;-72
2022/05/09 03:53:40;;;;;;;16.70;7.22;;;;;;;12.79;82.40;100093.48;1760970;80;21052;-72
2022/05/09 03:56:07;;;;;;;14.18;6.62;;;;;;;12.85;82.49;100095.52;1764381;80;20997;-70
2022/05/09 03:58:39;;;;;;;15.78;7.40;;;;;;;12.85;82.53;100090.81;1765773;81;21036;-70
2022/05/09 04:01:11;;;;;;;14.98;5.72;;;;;;;12.89;82.54;100100.66;1762967;81;21496;-71
2022/05/09 04:03:41;;;;;;;11.50;5.47;;;;;;;12.89;82.63;100107.02;1764293;80;21473;-72
2022/05/09 04:06:09;;;;;;;13.00;6.50;;;;;;;12.88;82.67;100107.34;1764502;80;21009;-70
2022/05/09 04:08:37;;;;;;;12.35;5.28;;;;;;;12.93;83.07;100109.14;1764434;81;22146;-71
2022/05/09 04:11:09;;;;;;;8.70;5.20;;;;;;;12.98;82.97;100111.75;1776942;79;21032;-71
2022/05/09 04:13:37;;;;;;;10.00;4.90;;;;;;;13.06;82.65;100117.05;1772149;79;21572;-71
2022/05/09 04:18:49;;;;;;;4.22;2.30;;;;;;;13.15;81.66;100129.75;1752660;79;21481;-71
2022/05/09 04:21:21;;;;;;;13.53;3.42;;;;;;;13.19;81.64;100131.31;1755640;79;21063;-71
2022/05/09 04:23:55;;;;;;;4.97;2.95;;;;;;;13.29;81.30;100136.30;1778364;79;21044;-71
2022/05/09 04:26:21;;;;;;;3.42;2.85;;;;;;;13.32;80.81;100135.65;1777116;79;21497;-69
2022/05/09 04:28:49;;;;;;;4.78;2.37;;;;;;;13.32;80.72;100134.27;1772210;79;21025;-71
2022/05/09 04:31:19;;;;;;;10.45;3.25;;;;;;;13.38;80.81;100132.95;1772506;79;21098;-72
2022/05/09 04:33:50;;;;;;;7.12;2.67;;;;;;;13.50;79.83;100140.06;1774534;79;21045;-71
2022/05/09 04:36:17;;;;;;;7.22;2.87;;;;;;;13.49;79.60;100145.33;1752025;81;21020;-72
2022/05/09 04:38:49;;;;;;;3.67;2.47;;;;;;;13.51;78.90;100145.86;1774586;79;21021;-71
2022/05/09 04:41:19;;;;;;;4.28;2.40;;;;;;;13.50;79.05;100142.83;1768766;79;21060;-70
2022/05/09 04:43:47;;;;;;;2.92;2.47;;;;;;;13.60;78.30;100147.25;1676540;84;21617;-70
2022/05/09 04:46:16;;;;;;;4.62;2.15;;;;;;;13.59;77.33;100151.73;1754014;79;20997;-71
2022/05/09 04:48:48;;;;;;;3.12;2.58;;;;;;;13.48;77.28;100159.50;1779780;78;21489;-73
2022/05/09 04:51:16;;;;;;;5.37;3.10;;;;;;;13.32;77.54;100159.17;1775510;79;20984;-72
2022/05/09 04:53:47;;;;;;;7.78;2.50;;;;;;;13.32;77.97;100157.23;1780270;79;21012;-71
2022/05/09 04:56:19;;;;;;;5.37;2.52;;;;;;;13.38;77.95;100162.02;1776898;79;21422;-70
2022/05/09 04:58:48;;;;;;;4.45;3.10;;;;;;;13.49;78.20;100161.94;1797065;78;21047;-70
2022/05/09 05:01:19;;;;;;;5.00;3.40;;;;;;;13.61;77.89;100163.30;1767594;79;21013;-71
2022/05/09 05:03:45;;;;;;;6.35;2.83;;;;;;;13.71;77.19;100164.93;1773043;79;21395;-71
2022/05/09 05:06:14;;;;;;;4.47;3.47;;;;;;;13.78;76.50;100165.27;1776847;79;21508;-71
2022/05/09 05:08:41;;;;;;;5.45;3.15;;;;;;;13.83;76.12;100164.28;1774933;79;22403;-71
2022/05/09 05:11:13;;;;;;;5.90;2.95;;;;;;;13.86;75.73;100173.31;1776641;79;20977;-72
2022/05/09 05:13:39;;;;;;;4.97;3.25;;;;;;;13.80;76.11;100178.19;1771407;78;21005;-71
2022/05/09 05:16:12;;;;;;;7.53;3.10;;;;;;;13.81;75.97;100187.32;1774298;79;21001;-71
2022/05/09 05:18:39;;;;;;;5.08;3.12;;;;;;;13.79;76.13;100184.88;1750391;80;21036;-72
2022/05/09 05:21:12;;;;;;;7.87;3.15;;;;;;;13.83;76.40;100184.48;1744865;80;21524;-69
2022/05/09 05:23:40;;;;;;;3.90;2.77;;;;;;;13.92;76.14;100200.28;1772164;79;21068;-72
2022/05/09 05:26:13;;;;;;;3.62;2.75;;;;;;;13.96;75.84;100192.94;1752889;80;21075;-71
2022/05/09 05:28:43;;;;;;;4.25;2.62;;;;;;;13.99;75.49;100200.59;1776372;79;21048;-70
2022/05/09 05:31:16;;;;;;;5.05;3.02;;;;;;;14.06;75.29;100195.94;1764289;79;20990;-70
2022/05/09 05:33:50;;;;;;;4.95;2.77;;;;;;;14.15;74.87;100200.09;1771866;79;21540;-73
2022/05/09 05:36:22;;;;;;;4.33;2.50;;;;;;;14.21;73.68;100201.57;1787461;79;21469;-71
2022/05/09 05:38:54;;;;;;;4.50;2.35;;;;;;;14.22;71.37;100201.23;1786122;79;20977;-71
2022/05/09 05:41:22;;;;;;;7.45;2.40;;;;;;;14.22;71.16;100208.73;1797532;79;21025;-72
2022/05/09 05:43:52;;;;;;;6.95;2.30;;;;;;;14.16;70.12;100204.51;1778429;78;20997;-71
2022/05/09 05:46:24;;;;;;;4.10;2.20;;;;;;;14.16;69.49;100201.73;1783599;79;21108;-69
2022/05/09 05:48:58;;;;;;;5.75;2.35;;;;;;;14.23;69.62;100208.95;1785773;79;21036;-69
2022/05/09 05:51:28;;;;;;;3.02;2.10;;;;;;;14.32;69.09;100209.78;1790908;79;21579;-69
2022/05/09 05:53:58;;;;;;;3.67;2.58;;;;;;;14.36;68.65;100212.70;1785289;79;20942;-70
2022/05/09 05:56:26;;;;;;;3.90;2.83;;;;;;;14.39;68.88;100214.81;1783127;78;20974;-71
2022/05/09 05:59:01;;;;;;;14.07;3.33;;;;;;;14.46;69.25;100226.78;1796651;78;21438;-71
2022/05/09 06:01:33;;;;;;;6.45;3.10;;;;;;;14.35;70.42;100231.29;1788372;78;21080;-70
2022/05/09 06:04:00;;;;;;;11.15;3.40;;;;;;;14.04;71.10;100231.49;1785556;79;21048;-70
2022/05/09 06:06:33;;;;;;;5.83;2.98;;;;;;;13.81;71.46;100233.02;1790885;79;21036;-71
2022/05/09 06:09:03;;;;;;;4.65;2.75;;;;;;;13.71;72.00;100238.31;1793485;79;21055;-71
2022/05/09 06:11:32;;;;;;;4.95;3.15;;;;;;;13.71;71.81;100234.98;1780188;79;21214;-69
2022/05/09 06:14:05;;;;;;;4.20;2.85;;;;;;;13.67;71.48;100240.08;1772596;79;21036;-71
2022/05/09 06:16:35;;;;;;;3.67;2.70;;;;;;;13.71;71.83;100239.70;1774647;79;20997;-71
2022/05/09 06:19:05;;;;;;;4.62;2.40;;;;;;;13.81;71.78;100236.61;1775774;79;21001;-72
2022/05/09 06:21:34;;;;;;;3.15;2.08;;;;;;;13.96;71.48;100238.08;1780193;79;21063;-71
2022/05/09 06:24:10;;;;;;;3.58;1.85;;;;;;;14.13;69.69;100236.44;1772542;79;21493;-69
2022/05/09 06:26:40;;;;;;;6.00;2.22;;;;;;;14.31;69.48;100244.16;1754467;80;21049;-69
2022/05/09 06:29:11;;;;;;;2.58;1.60;;;;;;;14.57;68.09;100248.03;1775446;79;21479;-69
2022/05/09 06:31:42;;;;;;;1.95;1.40;;;;;;;14.79;66.35;100253.93;1775139;79;21524;-72
2022/05/09 06:34:12;;;;;;;5.08;2.15;;;;;;;14.94;64.18;100248.44;1755897;80;21032;-70
2022/05/09 06:36:43;;;;;;;5.97;2.30;;;;;;;15.06;63.91;100247.74;1776983;79;21199;-69
2022/05/09 06:39:13;;;;;;;2.98;1.87;;;;;;;15.19;62.71;100240.92;1770876;79;21076;-70
2022/05/09 06:41:42;;;;;;;6.55;2.20;;;;;;;15.24;62.48;100246.28;1776449;79;21088;-72
2022/05/09 06:44:11;;;;;;;5.12;1.95;;;;;;;15.28;62.03;100245.88;1738936;80;21007;-69
2022/05/09 06:46:39;;;;;;;10.80;2.02;;;;;;;15.31;61.65;100260.47;1778665;79;21041;-71
2022/05/09 06:49:06;;;;;;;6.28;1.37;;;;;;;15.34;61.00;100253.41;1781246;79;21153;-71
2022/05/09 06:51:34;;;;;;;4.25;1.82;;;;;;;15.30;60.37;100251.88;1778647;79;20962;-69
2022/05/09 06:54:02;;;;;;;5.78;2.00;;;;;;;15.30;60.39;100253.86;1780189;79;21083;-71
2022/05/09 06:56:32;;;;;;;4.03;2.00;;;;;;;15.35;60.98;100258.41;1773682;79;21053;-70
2022/05/09 06:59:03;;;;;;;5.17;1.35;;;;;;;15.42;59.03;100256.71;1772827;80;21025;-70
2022/05/09 07:01:35;;;;;;;3.22;1.25;;;;;;;15.43;59.12;100261.70;1745514;80;21218;-70
2022/05/09 07:04:04;;;;;;;9.70;1.67;;;;;;;15.48;58.09;100262.08;1745078;80;20984;-69
2022/05/09 07:06:40;;;;;;;2.58;1.65;;;;;;;15.55;57.23;100273.48;1769043;80;20913;-70
2022/05/09 07:09:10;;;;;;;4.15;1.55;;;;;;;15.62;56.80;100267.39;1764437;80;20953;-70
2022/05/09 07:11:38;;;;;;;7.25;2.67;;;;;;;15.67;56.29;100274.14;1768206;80;22188;-70
2022/05/09 07:14:18;;;;;;;5.42;1.92;;;;;;;15.70;56.22;100267.34;1768948;80;21124;-71
2022/05/09 07:16:48;;;;;;;2.17;1.37;;;;;;;15.79;55.86;100271.45;1769162;80;21104;-70
2022/05/09 07:19:22;;;;;;;5.03;1.80;;;;;;;15.89;55.15;100272.19;1768297;80;20944;-70
2022/05/09 07:21:50;;;;;;;6.05;1.90;;;;;;;15.91;55.10;100276.84;1770472;79;20980;-68
2022/05/09 07:24:17;;;;;;;3.10;1.30;;;;;;;15.98;54.76;100275.73;1774671;80;21021;-69
2022/05/09 07:26:52;;;;;;;6.37;1.92;;;;;;;16.04;54.35;100276.36;1777701;80;21876;-69
2022/05/09 07:29:21;;;;;;;4.00;1.60;;;;;;;15.99;50.92;100288.50;1773552;80;20953;-71
2022/05/09 07:31:49;;;;;;;2.20;1.50;;;;;;;15.99;50.92;100288.50;1775452;79;20974;-70
2022/05/09 07:34:22;;;;;;;5.50;1.67;;;;;;;15.80;52.07;100285.58;1772328;79;21468;-71
2022/05/09 07:36:50;;;;;;;6.90;1.87;;;;;;;15.79;52.45;100283.95;1769794;79;21017;-71
2022/05/09 07:39:17;;;;;;;2.42;1.55;;;;;;;15.81;52.69;100287.19;1770878;79;21856;-72
2022/05/09 07:41:44;;;;;;;3.42;1.17;;;;;;;15.94;51.02;100298.39;1777203;79;21437;-71
2022/05/09 07:44:14;;;;;;;7.40;1.40;;;;;;;16.04;51.77;100298.59;1770463;79;21002;-69
2022/05/09 07:46:48;;;;;;;4.80;1.77;;;;;;;16.15;51.00;100297.05;1775219;79;20982;-69
2022/05/09 07:49:15;;;;;;;5.42;1.72;;;;;;;16.25;51.34;100294.43;1777601;79;21005;-70
2022/05/09 07:51:43;;;;;;;7.75;1.62;;;;;;;16.32;49.14;100304.19;1783262;78;21142;-72
2022/05/09 07:54:17;;;;;;;12.78;1.65;;;;;;;16.26;49.85;100300.22;1777149;79;21009;-70
2022/05/09 07:56:46;;;;;;;5.50;1.77;;;;;;;16.23;49.69;100313.98;1780910;80;21021;-70
2022/05/09 07:59:13;;;;;;;1.32;1.10;;;;;;;16.26;49.18;100306.34;1780437;78;21024;-74
2022/05/09 08:01:43;;;;;;;3.90;1.57;;;;;;;16.35;48.50;100304.32;1774804;79;20906;-69
2022/05/09 08:04:09;;;;;;;3.87;1.42;;;;;;;16.40;49.80;100311.63;1780743;79;21124;-70
2022/05/09 08:06:37;;;;;;;6.75;1.50;;;;;;;16.52;49.49;100313.09;1783846;79;21518;-69
2022/05/09 08:09:05;;;;;;;4.20;1.72;;;;;;;16.62;47.95;100307.67;1772843;81;21109;-71
2022/05/09 08:11:38;;;;;;;16.17;2.83;;;;;;;16.60;48.19;100320.30;1759174;80;21036;-72
2022/05/09 08:14:07;;;;;;;9.23;1.87;;;;;;;16.52;47.34;100331.16;1777116;80;21647;-71
2022/05/09 08:16:37;;;;;;;5.33;1.37;;;;;;;16.52;47.98;100324.21;1770743;80;21134;-71
2022/05/09 08:19:12;;;;;;;3.12;1.30;;;;;;;16.66;48.49;100318.93;1770610;80;20989;-71
2022/05/09 08:21:42;;;;;;;5.47;1.60;;;;;;;16.83;48.57;100319.33;1745222;81;20984;-71
2022/05/09 08:24:08;;;;;;;2.77;1.32;;;;;;;16.97;46.24;100319.03;1732743;82;20954;-71
2022/05/09 08:26:37;;;;;;;2.27;1.10;;;;;;;17.07;46.92;100318.34;1770510;81;21017;-71
2022/05/09 08:29:04;;;;;;;12.93;1.57;;;;;;;17.14;44.04;100319.41;1771770;80;21443;-71
2022/05/09 08:31:32;;;;;;;5.17;1.32;;;;;;;17.01;44.65;100320.52;1769391;81;21509;-71
2022/05/09 08:34:04;;;;;;;3.50;1.10;;;;;;;16.88;44.55;100320.51;1769671;79;22843;-70
2022/05/09 08:36:53;;;;;;;13.80;1.60;;;;;;;16.86;45.33;100319.21;1771068;80;21025;-72
2022/05/09 08:39:23;;;;;;;3.22;1.40;;;;;;;16.90;44.56;100323.77;1769351;79;21041;-72
2022/05/09 08:41:59;;;;;;;7.28;1.50;;;;;;;17.02;44.43;100329.94;1772610;79;21094;-69
2022/05/09 08:44:56;;;;;;;3.22;1.62;;;;;;;17.17;44.61;100324.06;1783662;79;21076;-71
2022/05/09 08:47:49;;;;;;;5.30;1.60;;;;;;;17.28;44.47;100326.05;1771088;79;20969;-71
2022/05/09 08:50:38;;;;;;;2.55;1.37;;;;;;;17.25;45.13;100328.14;1769691;79;21083;-71
2022/05/09 08:53:13;;;;;;;3.95;1.30;;;;;;;17.22;44.20;100331.62;1775037;79;20972;-70
2022/05/09 08:55:43;;;;;;;4.97;1.50;;;;;;;17.20;44.44;100327.54;1763931;79;21061;-70
2022/05/09 08:58:37;;;;;;;5.25;1.50;;;;;;;17.16;43.39;100334.41;1771510;80;20987;-71
2022/05/09 09:01:21;;;;;;;2.62;1.20;;;;;;;17.08;42.63;100336.66;1768147;80;21016;-71
2022/05/09 09:04:05;;;;;;;2.95;1.10;;;;;;;16.89;42.80;100335.22;1774432;80;21477;-72
2022/05/09 09:06:58;;;;;;;4.20;1.30;;;;;;;16.89;43.33;100338.82;1778593;78;21074;-71
2022/05/09 09:10:10;;;;;;;3.83;1.57;;;;;;;16.99;42.39;100331.20;1780191;80;21103;-71
2022/05/09 09:13:07;;;;;;;2.02;1.25;;;;;;;17.04;42.94;100334.56;1746775;81;20998;-71
2022/05/09 09:16:12;;;;;;;5.40;1.10;;;;;;;17.17;42.46;100335.20;1752966;80;21064;-72
2022/05/09 09:19:07;;;;;;;1.80;1.40;;;;;;;17.08;39.41;100342.22;1746587;81;21004;-72
2022/05/09 09:22:06;;;;;;;6.87;1.57;;;;;;;16.88;40.51;100339.16;1764429;80;20944;-72
2022/05/09 09:25:13;;;;;;;1.85;1.15;;;;;;;17.01;40.13;100336.65;1774107;80;21257;-71
2022/05/09 09:27:57;;;;;;;1.37;0.80;;;;;;;17.15;39.66;100338.33;1772298;80;20985;-69
2022/05/09 09:30:29;;;;;;;2.02;0.88;;;;;;;17.30;39.97;100344.41;1774665;79;21561;-73
2022/05/09 09:33:03;;;;;;;4.12;1.20;;;;;;;17.50;40.43;100344.06;1777953;79;21033;-72
2022/05/09 09:36:08;;;;;;;3.65;1.20;;;;;;;17.66;39.75;100346.95;1774772;79;21010;-72
2022/05/09 09:38:56;;;;;;;2.42;1.00;;;;;;;17.79;37.98;100346.95;1770303;79;21145;-69
2022/05/09 09:41:34;;;;;;;1.22;0.88;;;;;;;17.64;36.52;100351.48;1763832;79;21084;-73
2022/05/09 09:44:18;;;;;;;4.05;1.25;;;;;;;17.51;37.22;100343.72;1771580;79;21481;-72
2022/05/09 09:47:26;;;;;;;4.95;1.15;;;;;;;17.41;36.63;100337.21;1778420;78;21049;-73
2022/05/09 09:50:16;;;;;;;3.30;2.22;;;;;;;17.22;36.52;100353.08;1778649;79;21434;-70
2022/05/09 09:53:00;;;;;;;3.70;1.30;;;;;;;16.99;37.40;100343.13;1774684;79;21929;-71
2022/05/09 09:55:40;;;;;;;4.00;1.10;;;;;;;17.04;36.81;100349.08;1771837;79;21022;-75
2022/05/09 09:58:26;;;;;;;9.10;2.47;;;;;;;17.10;36.29;100357.47;1774710;79;21501;-70
2022/05/09 10:01:17;;;;;;;3.58;0.85;;;;;;;17.17;36.86;100351.33;1773169;80;21021;-74
2022/05/09 10:03:51;;;;;;;2.20;1.00;;;;;;;17.26;35.43;100348.45;1757356;80;20973;-72
2022/05/09 10:06:21;;;;;;;2.62;1.07;;;;;;;17.27;36.63;100359.81;1764676;78;21096;-72
2022/05/09 10:08:59;;;;;;;1.70;0.80;;;;;;;17.30;34.69;100360.51;1737628;78;21049;-71
2022/05/09 10:11:29;;;;;;;3.20;1.30;;;;;;;17.30;35.61;100347.98;1760142;79;21428;-77
2022/05/09 10:14:02;;;;;;;1.35;0.90;;;;;;;17.42;34.85;100345.00;1747644;80;21024;-73
2022/05/09 10:16:45;;;;;;;4.65;1.37;;;;;;;17.47;35.72;100353.92;1745720;81;20992;-69
2022/05/09 10:19:23;;;;;;;3.05;1.22;;;;;;;17.61;35.98;100352.76;1715394;80;21135;-73
2022/05/09 10:24:59;;;;;;;6.15;1.07;;;;;;;17.99;35.01;100345.19;1748603;79;21034;-72
2022/05/09 10:27:30;;;;;;;4.62;0.85;;;;;;;18.05;31.12;100351.34;1747032;81;20941;-73
2022/05/09 10:30:03;;;;;;;4.45;1.65;;;;;;;18.04;29.14;100343.56;1752936;81;21017;-74
2022/05/09 10:32:59;;;;;;;2.55;1.10;;;;;;;17.92;29.24;100345.78;1777801;79;21068;-74
2022/05/09 10:35:37;;;;;;;4.35;1.05;;;;;;;17.92;30.49;100339.39;1797222;79;20966;-76
2022/05/09 10:38:10;;;;;;;6.22;1.07;;;;;;;18.04;30.57;100348.31;1800343;79;20980;-75
2022/05/09 10:40:59;;;;;;;1.67;0.82;;;;;;;18.04;29.09;100341.34;1806747;79;21064;-75
2022/05/09 10:43:40;;;;;;;4.00;1.20;;;;;;;18.00;27.37;100342.05;1800030;79;20931;-73
2022/05/09 10:46:11;;;;;;;9.90;1.77;;;;;;;17.85;27.80;100346.38;1800495;79;20949;-73
2022/05/09 10:48:59;;;;;;;7.53;1.75;;;;;;;17.75;29.08;100344.05;1800276;79;21009;-74
2022/05/09 10:51:45;;;;;;;4.95;1.42;;;;;;;17.58;27.42;100347.31;1800007;79;20926;-75
2022/05/09 10:54:25;;;;;;;9.03;1.07;;;;;;;17.45;27.21;100352.05;1799818;79;21057;-75
2022/05/09 10:57:11;;;;;;;7.20;2.10;;;;;;;17.56;28.26;100341.84;1796957;79;22287;-72
2022/05/09 10:59:45;;;;;;;6.33;1.47;;;;;;;17.75;26.53;100343.48;1780721;79;20953;-73
2022/05/09 11:02:31;;;;;;;6.97;1.30;;;;;;;17.81;21.99;100342.64;1800493;79;20945;-74
2022/05/09 11:05:05;;;;;;;1.98;1.27;;;;;;;17.72;22.63;100345.58;1803064;79;21485;-74
2022/05/09 11:07:48;;;;;;;6.67;1.75;;;;;;;17.76;25.10;100350.67;1780671;79;20986;-76
2022/05/09 11:10:29;;;;;;;1.47;0.80;;;;;;;17.89;24.92;100355.64;1800770;79;21450;-76
2022/05/09 11:13:22;;;;;;;2.85;1.37;;;;;;;17.80;24.93;100347.18;1793636;79;20905;-73
2022/05/09 11:16:17;;;;;;;2.47;0.90;;;;;;;17.69;26.54;100343.47;1789533;79;21587;-75
2022/05/09 11:19:15;;;;;;;10.05;4.28;;;;;;;17.81;25.85;100344.04;1770906;80;21039;-71
2022/05/09 11:22:07;;;;;;;3.20;1.60;;;;;;;17.89;25.99;100343.70;1773867;80;21535;-75
2022/05/09 11:24:43;;;;;;;6.00;3.15;;;;;;;18.06;25.94;100338.45;1764183;80;20977;-74
2022/05/09 11:27:26;;;;;;;2.52;1.10;;;;;;;18.09;25.62;100337.74;1764169;80;21829;-75
2022/05/09 11:30:23;;;;;;;1.67;0.57;;;;;;;18.24;26.85;100336.80;1764483;81;20938;-74
2022/05/09 11:33:34;;;;;;;2.15;0.68;;;;;;;18.52;27.39;100337.98;1743576;81;20965;-76
2022/05/09 11:36:07;;;;;;;3.22;0.80;;;;;;;18.72;26.52;100339.77;1764275;81;21509;-73
2022/05/09 11:38:47;;;;;;;1.63;0.90;;;;;;;18.79;25.93;100340.55;1764158;81;20998;-72
2022/05/09 11:41:31;;;;;;;5.25;1.50;;;;;;;18.85;26.66;100344.69;1764689;81;21068;-73
2022/05/09 11:44:13;;;;;;;;;;;;;;;18.90;25.89;100335.84;1767041;81;21024;-74
2022/05/09 11:47:12;;;;;;;1.67;0.90;;;;;;;18.69;25.98;100341.05;1764418;81;20093;-74
2022/05/09 11:49:55;;;;;;;1.40;0.90;;;;;;;18.55;25.80;100332.52;1764156;80;20989;-73
2022/05/09 11:52:33;;;;;;;3.70;1.07;;;;;;;18.55;25.93;100336.70;1750837;81;20986;-73
2022/05/09 11:55:17;;;;;;;5.62;1.15;;;;;;;18.48;25.40;100327.55;1764688;80;21021;-71
2022/05/09 11:57:58;;;;;;;4.58;1.00;;;;;;;18.46;25.95;100332.66;1743034;81;20914;-72
2022/05/09 12:00:47;;;;;;;2.17;0.80;;;;;;;18.63;25.71;100328.54;1763823;80;21529;-72
2022/05/09 12:03:13;;;;;;;1.50;0.70;;;;;;;18.72;24.73;100334.76;1764896;80;21049;-75
2022/05/09 12:05:47;;;;;;;8.85;0.90;;;;;;;18.77;25.63;100329.49;1743657;81;20901;-73